LiveATC.Net - Listen to live air traffic control over the Internet!


ICAO: ENSO  IATA: SRP   Airport: Stord Lufthavn Airport
City: Stord
Country: Norway   Continent: Europe
ENSO METAR Weather: ENSO 121450Z 15011KT 19999 VCSH FEW010 SCT016CB SCT025 BKN055 04/03 Q0986
ENSO Flight Activity (FlightAware)
ENSO Webcam:  (Airport Webcams) 

ENSO AFIS
Feed Status: UP   Listeners: 0
Listen in your browser - HTML5 player (in browser, HTML5)
Click here to listen with your own player (launches your MP3 player)
Archive Access: ENSO AFIS
FacilityFrequency
Stord AFIS120.200
Feed sponsored by:

NOTICE

Unauthorized use prohibited. See LiveATC.net Terms of Service


Airport/ARTCC Code
Frequency Search
(e.g., 124.400, 128.75)
Site-wide search
 


Browse Feeds
Top 50 Feeds
Coverage Map
Bad Weather Areas

LiveATC FAQ
Offer LiveATC feed
Contact LiveATC.net
Press Inquiries

LiveATC on iPhone
LiveATC on Android

Windows Phone
Windows 8/10

LiveATC Mobile
(Mobile browser)

ATC Audio Archives
Interesting Recordings

LiveATC Forums


Home Page
About LiveATC.net
Make a Donation
Terms of Use
Privacy Policy

Canadian Air Freqs

AIRMETs/SIGMETs

FAA Airport Status
Nat'l Airspace Status
Arrival Demand Charts


Server Software By:
Icecast.org
Liquidsoap